Time;durP1;ratioP1;P1;durP2;ratioP2;P2;SDS_P1;SDS_P2;PMS_P1;PMS_P2;Temp;Humidity;BMP_temperature;BMP_pressure;BME280_temperature;BME280_humidity;BME280_pressure;Samples;Min_cycle;Max_cycle;Signal;HPM_P1;HPM_P2
2023/12/28 00:04:52;;;;;;;30.20;17.97;;;5.40;99.90;;;;;;10452797;28;20222;-79
2023/12/28 00:09:55;;;;;;;34.57;17.97;;;5.10;99.90;;;;;;10450256;28;20260;-79
2023/12/28 00:14:57;;;;;;;33.63;18.07;;;5.30;99.90;;;;;;10450102;28;20219;-80
2023/12/28 00:20:00;;;;;;;35.63;18.13;;;4.80;99.90;;;;;;10450136;28;20268;-79
2023/12/28 00:25:06;;;;;;;30.17;16.83;;;3.90;99.90;;;;;;10450679;28;20316;-79
2023/12/28 00:30:09;;;;;;;34.00;17.60;;;3.40;99.90;;;;;;10448760;28;20269;-79
2023/12/28 00:35:12;;;;;;;31.63;17.47;;;3.40;99.90;;;;;;10446629;28;20607;-79
2023/12/28 00:40:14;;;;;;;29.80;16.57;;;3.00;99.90;;;;;;10448377;28;20286;-79
2023/12/28 00:45:17;;;;;;;36.33;17.87;;;2.60;99.90;;;;;;10449140;28;20230;-80
2023/12/28 00:50:19;;;;;;;36.23;18.60;;;2.30;99.90;;;;;;10447208;28;20230;-79
2023/12/28 00:55:22;;;;;;;31.20;18.73;;;2.30;99.90;;;;;;10448952;28;20231;-79
2023/12/28 01:00:24;;;;;;;36.07;19.00;;;2.40;99.90;;;;;;10448170;28;20245;-79
2023/12/28 01:05:28;;;;;;;33.77;18.93;;;2.40;99.90;;;;;;10449462;28;20226;-80
2023/12/28 01:10:31;;;;;;;38.47;19.47;;;2.50;99.90;;;;;;10448388;28;20236;-79
2023/12/28 01:15:33;;;;;;;37.13;19.73;;;2.30;99.90;;;;;;10448714;28;20256;-79
2023/12/28 01:20:37;;;;;;;32.00;19.47;;;2.10;99.90;;;;;;10449746;28;20673;-79
2023/12/28 01:25:40;;;;;;;29.90;18.13;;;2.00;99.90;;;;;;10448174;28;20778;-79
2023/12/28 01:30:43;;;;;;;31.17;18.33;;;2.10;99.90;;;;;;10448606;28;20235;-79
2023/12/28 01:35:46;;;;;;;32.67;19.00;;;2.10;99.90;;;;;;10450439;28;20234;-79
2023/12/28 01:40:49;;;;;;;30.07;17.77;;;2.00;99.90;;;;;;10472466;28;20340;-79
2023/12/28 01:45:51;;;;;;;29.00;16.10;;;2.10;99.90;;;;;;10489801;28;20233;-79
2023/12/28 01:50:56;;;;;;;34.07;20.17;;;2.30;99.90;;;;;;10489301;28;20233;-79
2023/12/28 01:56:00;;;;;;;32.10;16.97;;;2.40;99.90;;;;;;10489690;28;20242;-79
2023/12/28 02:01:03;;;;;;;26.93;15.20;;;2.30;99.90;;;;;;10460901;28;20263;-79
2023/12/28 02:06:07;;;;;;;28.73;15.93;;;2.20;99.90;;;;;;10447957;28;20291;-79
2023/12/28 02:11:10;;;;;;;30.80;15.80;;;2.30;99.90;;;;;;10460398;28;20711;-79
2023/12/28 02:16:14;;;;;;;19.33;11.73;;;2.50;99.90;;;;;;10424608;28;20690;-79
2023/12/28 02:21:17;;;;;;;19.93;11.37;;;2.60;99.90;;;;;;10435308;28;20716;-79
2023/12/28 02:26:20;;;;;;;23.23;12.43;;;2.70;99.90;;;;;;10443719;28;20289;-79
2023/12/28 02:31:30;;;;;;;26.17;11.43;;;2.60;99.90;;;;;;10453620;28;20229;-79
2023/12/28 02:36:36;;;;;;;17.53;10.10;;;2.50;99.90;;;;;;10453713;28;20277;-79
2023/12/28 02:41:40;;;;;;;22.03;11.70;;;2.50;99.90;;;;;;10440538;28;20247;-79
2023/12/28 02:46:42;;;;;;;21.77;11.37;;;2.40;99.90;;;;;;10458907;28;20224;-79
2023/12/28 02:51:45;;;;;;;18.03;10.70;;;2.40;99.90;;;;;;10430167;28;20602;-79
2023/12/28 02:56:47;;;;;;;18.33;10.80;;;2.30;99.90;;;;;;10437973;28;20291;-79
2023/12/28 03:01:50;;;;;;;19.80;10.80;;;2.50;99.90;;;;;;10452927;28;20796;-79
2023/12/28 03:06:53;;;;;;;15.80;10.03;;;2.50;99.90;;;;;;10453197;28;20285;-79
2023/12/28 03:11:56;;;;;;;16.63;10.37;;;2.50;99.90;;;;;;10431656;28;20254;-79
2023/12/28 03:16:58;;;;;;;17.80;10.53;;;2.50;99.90;;;;;;10441591;28;20666;-79
2023/12/28 03:22:01;;;;;;;23.97;13.07;;;2.40;99.90;;;;;;10450369;28;20714;-79
2023/12/28 03:27:07;;;;;;;19.30;11.00;;;2.40;99.90;;;;;;10444111;28;20299;-79
2023/12/28 03:32:10;;;;;;;20.40;10.00;;;2.50;99.90;;;;;;10415291;28;20197;-79
2023/12/28 03:37:12;;;;;;;19.60;10.90;;;2.40;99.90;;;;;;10414294;28;20289;-79
2023/12/28 03:42:15;;;;;;;15.33;9.90;;;2.20;99.90;;;;;;10416339;28;20674;-79
2023/12/28 03:47:17;;;;;;;16.97;10.30;;;2.20;99.90;;;;;;10436568;28;20614;-79
2023/12/28 03:52:20;;;;;;;16.40;11.10;;;2.10;99.90;;;;;;10453191;28;20265;-79
2023/12/28 03:57:22;;;;;;;20.20;9.90;;;2.10;99.90;;;;;;10440772;28;20227;-79
2023/12/28 04:02:27;;;;;;;16.30;10.50;;;2.30;99.90;;;;;;10413269;28;20475;-79
2023/12/28 04:07:30;;;;;;;19.37;10.27;;;2.30;99.90;;;;;;10429265;28;20239;-79
2023/12/28 04:12:33;;;;;;;16.77;9.50;;;2.20;99.90;;;;;;10419433;28;20725;-79
2023/12/28 04:17:35;;;;;;;19.17;10.53;;;2.20;99.90;;;;;;10453469;28;20305;-79
2023/12/28 04:22:38;;;;;;;19.37;9.30;;;2.20;99.90;;;;;;10451925;28;20316;-79
2023/12/28 04:27:42;;;;;;;18.67;10.40;;;2.20;99.90;;;;;;10440310;28;20323;-79
2023/12/28 04:32:44;;;;;;;18.07;10.10;;;2.10;99.90;;;;;;10440235;28;20674;-79
2023/12/28 04:37:46;;;;;;;19.17;10.33;;;2.00;99.90;;;;;;10435174;28;20302;-78
2023/12/28 04:42:49;;;;;;;15.17;10.43;;;2.00;99.90;;;;;;10414728;28;20243;-79
2023/12/28 04:47:52;;;;;;;18.27;9.63;;;2.00;99.90;;;;;;10449506;28;20223;-79
2023/12/28 04:52:55;;;;;;;18.90;9.90;;;1.90;99.90;;;;;;10446881;28;20287;-79
2023/12/28 04:57:58;;;;;;;23.30;11.20;;;2.00;99.90;;;;;;10444106;28;20373;-79
2023/12/28 05:03:00;;;;;;;17.03;10.90;;;1.90;99.90;;;;;;10408799;28;20251;-79
2023/12/28 05:08:04;;;;;;;21.30;10.53;;;1.70;99.90;;;;;;10433402;28;20573;-79
2023/12/28 05:13:08;;;;;;;17.10;10.23;;;1.80;99.90;;;;;;10426675;28;20258;-79
2023/12/28 05:18:11;;;;;;;20.53;10.23;;;1.80;99.90;;;;;;10426008;28;20747;-79
2023/12/28 05:23:13;;;;;;;18.77;10.90;;;1.80;99.90;;;;;;10448907;28;20706;-79
2023/12/28 05:28:16;;;;;;;15.67;9.77;;;1.70;99.90;;;;;;10424324;28;20259;-79
2023/12/28 05:33:18;;;;;;;19.33;11.63;;;1.80;99.90;;;;;;10426315;28;20286;-79
2023/12/28 05:38:21;;;;;;;21.07;10.87;;;1.80;99.90;;;;;;10428078;28;20698;-79
2023/12/28 05:43:23;;;;;;;17.87;10.83;;;1.80;99.90;;;;;;10432884;28;20259;-79
2023/12/28 05:48:26;;;;;;;19.03;12.20;;;1.80;99.90;;;;;;10445599;28;20676;-79
2023/12/28 05:53:29;;;;;;;20.83;13.60;;;1.80;99.90;;;;;;10468255;28;20257;-79
2023/12/28 05:58:31;;;;;;;22.07;12.23;;;2.00;99.90;;;;;;10449376;28;20235;-79
2023/12/28 06:03:35;;;;;;;21.97;13.30;;;2.00;99.90;;;;;;10455641;28;20203;-79
2023/12/28 06:08:38;;;;;;;23.83;13.67;;;1.80;99.90;;;;;;10409798;28;20648;-79
2023/12/28 06:13:40;;;;;;;20.20;12.73;;;2.00;99.90;;;;;;10409804;28;20227;-80
2023/12/28 06:18:43;;;;;;;27.47;16.13;;;2.20;99.90;;;;;;10407453;28;20236;-79
2023/12/28 06:23:46;;;;;;;33.40;15.33;;;2.30;99.90;;;;;;10448496;28;20609;-79
2023/12/28 06:28:48;;;;;;;27.67;14.37;;;2.50;99.90;;;;;;10447929;28;21005;-79
2023/12/28 06:33:51;;;;;;;16.53;10.10;;;3.00;99.90;;;;;;10480332;28;20226;-79
2023/12/28 06:38:53;;;;;;;13.00;6.47;;;3.40;99.90;;;;;;10488862;28;20210;-79
2023/12/28 06:43:56;;;;;;;18.43;9.17;;;4.50;99.90;;;;;;10461743;28;20380;-79
2023/12/28 06:48:58;;;;;;;13.77;8.17;;;5.60;99.90;;;;;;10407689;28;20680;-79
2023/12/28 06:54:02;;;;;;;5.50;3.37;;;6.90;99.90;;;;;;10469849;28;20244;-80
2023/12/28 06:59:04;;;;;;;5.33;3.93;;;8.00;99.90;;;;;;10432461;28;20344;-79
2023/12/28 07:04:07;;;;;;;6.37;4.17;;;8.80;99.90;;;;;;10406074;28;20248;-80
2023/12/28 07:09:10;;;;;;;8.30;5.27;;;9.50;99.90;;;;;;10409949;28;20274;-80
2023/12/28 07:14:12;;;;;;;10.83;4.43;;;9.70;99.90;;;;;;10491691;28;20242;-79
2023/12/28 07:19:15;;;;;;;8.53;5.27;;;10.20;99.90;;;;;;10495615;28;20241;-79
2023/12/28 07:24:17;;;;;;;5.63;3.90;;;10.80;99.90;;;;;;10455919;28;20230;-79
2023/12/28 07:29:21;;;;;;;8.10;4.33;;;;;;;;;;10480742;28;20230;-80
2023/12/28 07:34:27;;;;;;;7.10;3.87;;;12.10;99.90;;;;;;10453386;28;20250;-80
2023/12/28 07:39:30;;;;;;;7.03;4.47;;;12.40;99.90;;;;;;10470442;28;20238;-80
2023/12/28 07:44:32;;;;;;;7.10;4.30;;;12.50;99.90;;;;;;10451910;28;20257;-80
2023/12/28 07:49:35;;;;;;;6.40;4.43;;;12.20;99.90;;;;;;10414312;28;20266;-79
2023/12/28 07:54:38;;;;;;;5.57;3.80;;;12.20;99.90;;;;;;10453965;28;20258;-78
2023/12/28 07:59:41;;;;;;;5.60;3.73;;;12.10;99.90;;;;;;10457327;28;20238;-78
2023/12/28 08:04:44;;;;;;;6.63;4.67;;;12.10;99.90;;;;;;10430810;28;20277;-78
2023/12/28 08:09:46;;;;;;;5.30;3.97;;;11.80;99.90;;;;;;10435774;28;20234;-78
2023/12/28 08:14:49;;;;;;;9.60;5.77;;;11.70;99.90;;;;;;10453546;28;20242;-79
2023/12/28 08:19:52;;;;;;;8.80;5.07;;;10.60;99.90;;;;;;10464439;28;20242;-78
2023/12/28 08:24:54;;;;;;;6.50;4.53;;;10.80;99.90;;;;;;10467618;28;20258;-79
2023/12/28 08:29:57;;;;;;;8.20;5.60;;;10.60;99.90;;;;;;10453412;28;20293;-79
2023/12/28 08:34:59;;;;;;;10.17;6.10;;;10.80;99.90;;;;;;10452778;28;20280;-78
2023/12/28 08:40:03;;;;;;;13.07;8.47;;;10.70;99.90;;;;;;10476192;28;20292;-78
2023/12/28 08:45:06;;;;;;;24.00;12.00;;;10.30;99.90;;;;;;10465944;28;20225;-79
2023/12/28 08:50:09;;;;;;;22.13;12.40;;;10.00;99.90;;;;;;10475135;28;20285;-79
2023/12/28 08:55:12;;;;;;;11.63;6.53;;;10.00;99.90;;;;;;10492898;28;20230;-79
2023/12/28 09:00:16;;;;;;;9.97;5.47;;;10.30;99.90;;;;;;10459436;28;20254;-79
2023/12/28 09:05:19;;;;;;;10.83;6.47;;;10.50;99.90;;;;;;10466907;28;20230;-79
2023/12/28 09:10:21;;;;;;;11.43;6.37;;;10.60;99.90;;;;;;10492185;28;20246;-79
2023/12/28 09:15:24;;;;;;;13.37;8.03;;;10.80;99.90;;;;;;10492531;28;20279;-79
2023/12/28 09:20:26;;;;;;;11.20;6.73;;;10.80;99.90;;;;;;10492109;28;20278;-79
2023/12/28 09:25:29;;;;;;;5.40;3.67;;;10.60;99.90;;;;;;10474489;28;20312;-80
2023/12/28 09:30:32;;;;;;;8.10;5.80;;;11.20;99.90;;;;;;10449350;28;20284;-79
2023/12/28 09:35:37;;;;;;;9.83;5.40;;;11.50;99.90;;;;;;10437435;28;20333;-80
2023/12/28 09:40:42;;;;;;;10.57;5.83;;;12.10;99.90;;;;;;10098285;28;10000406;-80
2023/12/28 09:45:48;;;;;;;9.03;5.20;;;12.20;99.90;;;;;;10446267;28;20547;-80
2023/12/28 09:50:55;;;;;;;8.63;5.43;;;12.30;99.90;;;;;;10443922;28;20227;-78
2023/12/28 09:55:59;;;;;;;6.67;4.53;;;12.40;99.90;;;;;;10481067;28;20239;-78
2023/12/28 10:01:03;;;;;;;8.00;5.27;;;12.50;99.90;;;;;;10488521;28;20891;-78
2023/12/28 10:06:06;;;;;;;8.97;6.00;;;12.80;99.90;;;;;;10478143;28;20260;-79
2023/12/28 10:11:09;;;;;;;6.77;4.20;;;13.00;99.90;;;;;;10485000;28;20250;-79
2023/12/28 10:16:12;;;;;;;17.27;7.43;;;12.90;99.90;;;;;;10453570;28;20234;-78
2023/12/28 10:21:14;;;;;;;14.60;8.53;;;13.00;99.90;;;;;;10413326;28;20239;-79
2023/12/28 10:26:20;;;;;;;10.07;5.23;;;12.20;99.90;;;;;;10425091;28;20407;-79
2023/12/28 10:31:23;;;;;;;17.03;9.00;;;12.90;99.90;;;;;;10444420;28;20287;-79
2023/12/28 10:36:27;;;;;;;15.30;8.63;;;13.00;99.90;;;;;;10433635;28;20287;-78
2023/12/28 10:41:32;;;;;;;11.87;6.20;;;13.00;99.90;;;;;;10432639;28;20262;-79
2023/12/28 10:46:40;;;;;;;15.50;9.10;;;12.40;99.90;;;;;;10435596;28;20234;-79
2023/12/28 10:51:47;;;;;;;26.73;9.23;;;11.50;99.90;;;;;;10450954;28;20235;-79
2023/12/28 10:57:01;;;;;;;14.83;7.43;;;11.40;99.90;;;;;;10454745;28;20292;-79
2023/12/28 11:02:06;;;;;;;14.67;7.23;;;10.60;99.90;;;;;;10441556;28;20297;-79
2023/12/28 11:07:13;;;;;;;20.37;6.10;;;10.90;99.90;;;;;;10412846;28;20681;-78
2023/12/28 11:12:20;;;;;;;16.00;8.30;;;11.70;99.90;;;;;;10452793;28;20261;-79
2023/12/28 11:17:26;;;;;;;16.07;7.90;;;12.60;99.90;;;;;;10456023;28;20628;-79
2023/12/28 11:22:29;;;;;;;9.60;4.97;;;12.90;99.90;;;;;;10496887;28;20250;-78
2023/12/28 11:27:36;;;;;;;9.97;4.93;;;11.30;99.90;;;;;;10493847;28;20253;-77
2023/12/28 11:32:43;;;;;;;11.60;7.33;;;10.30;99.90;;;;;;10456731;28;20377;-79
2023/12/28 11:37:51;;;;;;;12.40;6.27;;;9.70;99.90;;;;;;10457621;28;20234;-78
2023/12/28 11:42:54;;;;;;;16.30;9.93;;;9.80;99.90;;;;;;10465802;28;20686;-79
2023/12/28 11:48:01;;;;;;;15.70;8.73;;;10.60;99.90;;;;;;10468761;28;20285;-79
2023/12/28 11:53:04;;;;;;;18.43;9.40;;;11.30;99.90;;;;;;10488248;28;20237;-79
2023/12/28 11:58:06;;;;;;;18.17;8.93;;;11.60;99.90;;;;;;10465730;28;20222;-79
2023/12/28 12:03:12;;;;;;;12.17;7.10;;;12.10;99.90;;;;;;10452247;28;20257;-79
2023/12/28 12:08:15;;;;;;;17.07;7.70;;;12.50;99.90;;;;;;10453848;28;20243;-79
2023/12/28 12:13:18;;;;;;;14.33;7.63;;;12.50;99.90;;;;;;10464218;28;20226;-78
2023/12/28 12:18:21;;;;;;;9.27;6.53;;;12.60;99.90;;;;;;10441210;28;20257;-79
2023/12/28 12:23:24;;;;;;;22.50;12.30;;;12.00;99.90;;;;;;10452655;28;20308;-79
2023/12/28 12:28:27;;;;;;;12.00;6.97;;;10.20;99.90;;;;;;10452441;28;20286;-79
2023/12/28 12:33:31;;;;;;;11.77;5.40;;;10.80;99.90;;;;;;10458535;28;20285;-79
2023/12/28 12:38:35;;;;;;;12.03;6.03;;;11.30;99.90;;;;;;10426061;28;20234;-79
2023/12/28 12:43:37;;;;;;;12.80;6.07;;;11.70;99.90;;;;;;10452000;28;20316;-79
2023/12/28 12:48:40;;;;;;;13.07;7.03;;;12.00;99.90;;;;;;10474579;28;20230;-78
2023/12/28 12:53:43;;;;;;;12.00;7.63;;;12.20;99.90;;;;;;10489972;28;20297;-78
2023/12/28 12:58:46;;;;;;;10.90;5.17;;;12.10;99.90;;;;;;10457244;28;20231;-78
2023/12/28 13:03:49;;;;;;;14.13;7.73;;;12.60;99.90;;;;;;10433595;28;20661;-79
2023/12/28 13:08:52;;;;;;;10.33;6.23;;;12.50;99.90;;;;;;10450527;28;20230;-79
2023/12/28 13:13:55;;;;;;;10.23;6.20;;;12.60;99.90;;;;;;10448745;28;20269;-78
2023/12/28 13:18:57;;;;;;;11.03;6.53;;;12.70;99.90;;;;;;10449030;28;20235;-78
2023/12/28 13:24:02;;;;;;;10.87;4.83;;;12.90;99.90;;;;;;10445983;28;20280;-79
2023/12/28 13:29:04;;;;;;;10.20;5.63;;;12.90;99.90;;;;;;10446697;28;20251;-79
2023/12/28 13:34:08;;;;;;;10.87;5.73;;;12.50;99.90;;;;;;10446549;28;20230;-79
2023/12/28 13:39:14;;;;;;;7.53;4.13;;;12.60;99.90;;;;;;10448601;28;20238;-80
2023/12/28 13:44:17;;;;;;;9.23;4.20;;;12.30;99.90;;;;;;10444358;28;20254;-79
2023/12/28 13:49:19;;;;;;;10.03;5.77;;;12.30;99.90;;;;;;10449102;28;20226;-79
2023/12/28 13:54:22;;;;;;;8.20;4.97;;;12.40;99.90;;;;;;10448912;28;21112;-79
2023/12/28 13:59:25;;;;;;;9.33;5.63;;;12.50;99.90;;;;;;10449960;28;20296;-79
2023/12/28 14:04:27;;;;;;;7.63;4.10;;;12.60;99.90;;;;;;10435312;28;20259;-79
2023/12/28 14:09:31;;;;;;;8.50;5.83;;;12.50;99.90;;;;;;10489233;28;20742;-78
2023/12/28 14:14:34;;;;;;;10.10;6.00;;;12.30;99.90;;;;;;10490091;28;20282;-79
2023/12/28 14:19:36;;;;;;;9.47;5.53;;;12.20;99.90;;;;;;10451616;28;20221;-79
2023/12/28 14:24:39;;;;;;;9.00;5.70;;;12.40;99.90;;;;;;10457350;28;20270;-78
2023/12/28 14:29:42;;;;;;;9.87;6.50;;;12.40;99.90;;;;;;10446779;28;20234;-78
2023/12/28 14:34:45;;;;;;;10.23;5.83;;;12.10;99.90;;;;;;10442578;28;20230;-79
2023/12/28 14:39:48;;;;;;;11.53;6.80;;;11.70;99.90;;;;;;10450631;28;20263;-78
2023/12/28 14:44:51;;;;;;;6.10;3.83;;;11.90;99.90;;;;;;10448605;28;20254;-80
2023/12/28 14:49:54;;;;;;;11.47;7.03;;;11.90;99.90;;;;;;10441311;28;20614;-78
2023/12/28 14:54:57;;;;;;;10.70;6.70;;;12.00;99.90;;;;;;10446042;28;20233;-79
2023/12/28 15:00:00;;;;;;;11.50;6.43;;;11.20;99.90;;;;;;10465102;28;20280;-80
2023/12/28 15:05:03;;;;;;;16.20;9.07;;;11.00;99.90;;;;;;10484244;28;20242;-80
2023/12/28 15:10:08;;;;;;;14.50;8.33;;;11.40;99.90;;;;;;10488294;28;20636;-80
2023/12/28 15:15:12;;;;;;;15.57;8.43;;;10.90;99.90;;;;;;10489445;28;20243;-80
2023/12/28 15:20:15;;;;;;;9.93;6.50;;;10.40;99.90;;;;;;10489989;28;20230;-80
2023/12/28 15:25:18;;;;;;;12.67;7.17;;;10.50;99.90;;;;;;10487893;28;20331;-80
2023/12/28 15:30:21;;;;;;;13.43;7.77;;;10.00;99.90;;;;;;10489299;28;20787;-81
2023/12/28 15:35:23;;;;;;;12.87;7.00;;;10.00;99.90;;;;;;10491452;28;20663;-80
2023/12/28 15:40:26;;;;;;;10.50;6.87;;;10.10;99.90;;;;;;10496282;28;20287;-80
2023/12/28 15:45:30;;;;;;;10.20;5.73;;;10.00;99.90;;;;;;10495200;28;20262;-80
2023/12/28 15:50:32;;;;;;;14.80;8.30;;;9.50;99.90;;;;;;10494940;28;20229;-80
2023/12/28 15:55:35;;;;;;;19.60;11.40;;;9.60;99.90;;;;;;10495615;28;20676;-80
2023/12/28 16:00:39;;;;;;;20.00;10.10;;;9.20;99.90;;;;;;10495682;28;20299;-80
2023/12/28 16:05:41;;;;;;;15.53;9.03;;;9.20;99.90;;;;;;10495230;28;20254;-80
2023/12/28 16:10:47;;;;;;;19.93;10.50;;;9.10;99.90;;;;;;10493626;28;20272;-80
2023/12/28 16:15:50;;;;;;;16.63;8.50;;;9.00;99.90;;;;;;10495013;28;20241;-80
2023/12/28 16:20:53;;;;;;;17.57;10.33;;;8.90;99.90;;;;;;10493265;28;20681;-80
2023/12/28 16:25:56;;;;;;;14.67;8.50;;;9.10;99.90;;;;;;10494253;28;20292;-80
2023/12/28 16:30:59;;;;;;;10.37;6.67;;;9.60;99.90;;;;;;10493952;28;20291;-80
2023/12/28 16:36:02;;;;;;;12.43;5.87;;;9.90;99.90;;;;;;10494240;28;20234;-80
2023/12/28 16:41:05;;;;;;;15.37;9.33;;;10.10;99.90;;;;;;10493791;28;20259;-80
2023/12/28 16:46:07;;;;;;;14.80;9.03;;;9.40;99.90;;;;;;10493191;28;20689;-80
2023/12/28 16:51:10;;;;;;;18.97;9.10;;;9.30;99.90;;;;;;10493635;28;20237;-80
2023/12/28 16:56:13;;;;;;;13.37;6.90;;;9.60;99.90;;;;;;10492369;28;20246;-80
2023/12/28 17:01:15;;;;;;;17.70;10.40;;;9.80;99.90;;;;;;10492765;28;20295;-80
2023/12/28 17:06:18;;;;;;;19.60;9.30;;;9.90;99.90;;;;;;10476754;28;20242;-80
2023/12/28 17:11:21;;;;;;;12.40;7.77;;;9.70;99.90;;;;;;10451203;28;20288;-80
2023/12/28 17:16:23;;;;;;;8.50;5.07;;;9.30;99.90;;;;;;10450945;28;20227;-80
2023/12/28 17:21:34;;;;;;;10.20;5.93;;;9.60;99.90;;;;;;10450759;28;20230;-80
2023/12/28 17:26:43;;;;;;;11.53;6.27;;;9.80;99.90;;;;;;10450880;28;20318;-80
2023/12/28 17:31:46;;;;;;;16.27;7.83;;;10.20;99.90;;;;;;10450914;28;20238;-80
2023/12/28 17:36:49;;;;;;;8.33;5.77;;;10.10;99.90;;;;;;10450285;28;20242;-80
2023/12/28 17:41:53;;;;;;;9.70;6.03;;;10.40;99.90;;;;;;10448991;28;20730;-80
2023/12/28 17:46:57;;;;;;;8.53;5.17;;;10.90;99.90;;;;;;10450121;28;20261;-80
2023/12/28 17:52:04;;;;;;;10.63;6.83;;;11.50;99.90;;;;;;10449478;28;20234;-80
2023/12/28 17:57:07;;;;;;;13.90;8.17;;;11.30;99.90;;;;;;10449369;28;20290;-80
2023/12/28 18:02:11;;;;;;;6.47;4.80;;;11.80;99.90;;;;;;10447121;28;20254;-80
2023/12/28 18:07:14;;;;;;;8.33;4.97;;;11.70;99.90;;;;;;10448576;28;20666;-80
2023/12/28 18:12:17;;;;;;;9.77;5.27;;;11.40;99.90;;;;;;10448760;28;20293;-80
2023/12/28 18:17:19;;;;;;;13.03;6.80;;;11.50;99.90;;;;;;10448986;28;20652;-80
2023/12/28 18:22:22;;;;;;;6.97;4.80;;;11.20;99.90;;;;;;10448588;28;20282;-80
2023/12/28 18:27:24;;;;;;;9.03;5.17;;;10.80;99.90;;;;;;10448276;28;20713;-80
2023/12/28 18:32:26;;;;;;;8.33;5.37;;;11.00;99.90;;;;;;10448688;28;20234;-80
2023/12/28 18:37:29;;;;;;;13.93;6.93;;;10.80;99.90;;;;;;10448488;28;20637;-80
2023/12/28 18:42:33;;;;;;;9.80;5.93;;;11.20;99.90;;;;;;10448454;28;20730;-80
2023/12/28 18:47:35;;;;;;;10.87;5.53;;;11.30;99.90;;;;;;10447080;28;20226;-80
2023/12/28 18:52:38;;;;;;;13.37;6.13;;;11.40;99.90;;;;;;10448178;28;20285;-80
2023/12/28 18:57:40;;;;;;;10.13;6.20;;;11.60;99.90;;;;;;10448340;28;20231;-80
2023/12/28 19:02:43;;;;;;;9.10;4.73;;;11.70;99.90;;;;;;10446722;28;20308;-80
2023/12/28 19:07:45;;;;;;;10.53;3.73;;;12.00;99.90;;;;;;10447701;28;20611;-79
2023/12/28 19:12:48;;;;;;;15.47;8.33;;;12.20;99.90;;;;;;10455958;28;20225;-80
2023/12/28 19:17:52;;;;;;;11.67;5.43;;;12.20;99.90;;;;;;10456072;28;20285;-79
2023/12/28 19:22:55;;;;;;;11.13;6.07;;;12.60;99.90;;;;;;10423291;28;20265;-80
2023/12/28 19:27:57;;;;;;;11.07;6.40;;;12.50;99.90;;;;;;10452836;28;20250;-80
2023/12/28 19:33:00;;;;;;;12.97;7.80;;;12.70;99.90;;;;;;10448495;28;20284;-81
2023/12/28 19:38:03;;;;;;;10.67;7.33;;;12.00;99.90;;;;;;10447628;28;20231;-80
2023/12/28 19:43:05;;;;;;;10.63;7.23;;;11.50;99.90;;;;;;10450490;28;20262;-80
2023/12/28 19:48:08;;;;;;;9.27;6.00;;;10.80;99.90;;;;;;10102628;28;10000601;-81
2023/12/28 19:53:16;;;;;;;11.57;7.30;;;10.20;99.90;;;;;;10458585;28;20316;-81
2023/12/28 19:58:18;;;;;;;11.77;8.37;;;10.20;99.90;;;;;;10452614;28;20348;-80
2023/12/28 20:03:21;;;;;;;17.93;8.80;;;9.60;99.90;;;;;;10471982;28;20246;-80
2023/12/28 20:08:24;;;;;;;13.70;8.03;;;9.20;99.90;;;;;;10450562;28;20646;-81
2023/12/28 20:13:27;;;;;;;19.23;10.90;;;9.00;99.90;;;;;;10443708;28;20243;-80
2023/12/28 20:18:30;;;;;;;20.80;11.77;;;8.70;99.90;;;;;;10448982;28;20261;-80
2023/12/28 20:23:33;;;;;;;20.27;11.70;;;8.40;99.90;;;;;;10448416;28;20250;-81
2023/12/28 20:28:35;;;;;;;16.80;9.63;;;8.50;99.90;;;;;;10442594;28;20259;-80
2023/12/28 20:33:38;;;;;;;22.17;11.30;;;8.70;99.90;;;;;;10447927;28;20288;-80
2023/12/28 20:38:40;;;;;;;20.67;11.73;;;8.70;99.90;;;;;;10448663;28;20292;-80
2023/12/28 20:43:44;;;;;;;7.53;3.93;;;8.80;99.90;;;;;;10443799;28;20254;-79
2023/12/28 20:48:46;;;;;;;13.17;7.80;;;9.40;99.90;;;;;;10447722;28;20226;-80
2023/12/28 20:53:50;;;;;;;15.80;11.03;;;9.10;99.90;;;;;;10459400;28;20324;-79
2023/12/28 20:58:52;;;;;;;10.43;6.00;;;9.10;99.90;;;;;;10450075;28;20234;-80
2023/12/28 21:03:55;;;;;;;13.67;7.67;;;9.20;99.90;;;;;;10434570;28;20266;-80
2023/12/28 21:08:58;;;;;;;11.77;6.77;;;9.50;99.90;;;;;;10441732;28;20256;-80
2023/12/28 21:14:04;;;;;;;9.13;5.80;;;9.60;99.90;;;;;;10448824;28;20231;-80
2023/12/28 21:19:07;;;;;;;12.57;8.00;;;10.20;99.90;;;;;;10446860;28;20238;-80
2023/12/28 21:24:10;;;;;;;6.93;4.67;;;9.60;99.90;;;;;;10449769;28;20258;-79
2023/12/28 21:29:13;;;;;;;12.33;6.80;;;9.60;99.90;;;;;;10448837;28;20970;-79
2023/12/28 21:34:18;;;;;;;6.70;4.40;;;9.40;99.90;;;;;;10436152;28;20344;-80
2023/12/28 21:39:21;;;;;;;14.10;8.33;;;9.20;99.90;;;;;;10443702;28;20285;-80
2023/12/28 21:44:23;;;;;;;11.80;7.20;;;9.40;99.90;;;;;;10438958;28;20344;-79
2023/12/28 21:49:26;;;;;;;13.30;8.73;;;9.30;99.90;;;;;;10408751;28;20684;-80
2023/12/28 21:54:29;;;;;;;8.27;5.77;;;9.20;99.90;;;;;;10436889;28;20643;-80
2023/12/28 21:59:31;;;;;;;10.30;5.43;;;9.60;99.90;;;;;;10449703;28;20238;-80
2023/12/28 22:04:34;;;;;;;9.57;6.33;;;10.00;99.90;;;;;;10455086;28;20262;-80
2023/12/28 22:09:36;;;;;;;8.33;6.03;;;10.10;99.90;;;;;;10475809;28;20285;-80
2023/12/28 22:14:39;;;;;;;6.30;4.27;;;9.90;99.90;;;;;;10449145;28;20305;-80
2023/12/28 22:19:43;;;;;;;3.77;3.23;;;10.50;99.90;;;;;;10447870;28;20230;-80
2023/12/28 22:24:46;;;;;;;9.73;6.53;;;10.80;99.90;;;;;;10446528;28;20327;-80
2023/12/28 22:29:48;;;;;;;7.47;4.60;;;10.80;99.90;;;;;;10434975;28;20616;-80
2023/12/28 22:34:51;;;;;;;8.43;5.13;;;11.20;99.90;;;;;;10437621;28;20292;-80
2023/12/28 22:39:53;;;;;;;6.67;4.10;;;10.90;99.90;;;;;;10435543;28;20250;-80
2023/12/28 22:44:56;;;;;;;8.73;6.00;;;11.20;99.90;;;;;;10454233;28;20329;-80
2023/12/28 22:49:58;;;;;;;5.40;4.10;;;11.10;99.90;;;;;;10456528;28;20244;-79
2023/12/28 22:55:04;;;;;;;8.83;5.63;;;10.80;99.90;;;;;;10452437;28;20234;-80
2023/12/28 23:00:16;;;;;;;15.67;8.17;;;10.70;99.90;;;;;;10436950;28;20296;-80
2023/12/28 23:05:19;;;;;;;9.40;7.10;;;9.00;99.90;;;;;;10456002;28;20315;-80
2023/12/28 23:10:22;;;;;;;13.57;6.57;;;9.40;99.90;;;;;;10445618;28;20277;-79
2023/12/28 23:15:29;;;;;;;9.87;6.33;;;9.70;99.90;;;;;;10444227;28;20276;-80
2023/12/28 23:20:32;;;;;;;9.47;5.30;;;9.80;99.90;;;;;;10454808;28;20296;-80
2023/12/28 23:25:34;;;;;;;12.07;6.40;;;10.20;99.90;;;;;;10454329;28;20656;-79
2023/12/28 23:30:39;;;;;;;13.27;6.20;;;9.90;99.90;;;;;;10454673;28;20277;-80
2023/12/28 23:35:42;;;;;;;10.43;6.17;;;9.60;99.90;;;;;;10438061;28;20774;-79
2023/12/28 23:40:45;;;;;;;11.63;7.00;;;9.10;99.90;;;;;;10458698;28;20289;-80
2023/12/28 23:45:48;;;;;;;14.53;8.07;;;8.60;99.90;;;;;;10456871;28;20717;-80
2023/12/28 23:50:50;;;;;;;11.17;7.23;;;8.00;99.90;;;;;;10453839;28;20348;-80
2023/12/28 23:55:54;;;;;;;14.97;7.70;;;7.60;99.90;;;;;;10469608;28;20287;-80
